sensor_id;sensor_type;location;lat;lon;timestamp;pressure;altitude;pressure_sealevel;temperature;humidity
33635;BME280;19972;54.360;10.076;2022-11-15T00:00:54;100939.25;;;4.03;100.00
33635;BME280;19972;54.360;10.076;2022-11-15T00:03:23;100946.59;;;4.18;100.00
33635;BME280;19972;54.360;10.076;2022-11-15T00:05:50;100948.38;;;4.18;100.00
33635;BME280;19972;54.360;10.076;2022-11-15T00:08:17;100955.56;;;4.13;100.00
33635;BME280;19972;54.360;10.076;2022-11-15T00:10:53;100951.94;;;4.15;100.00
33635;BME280;19972;54.360;10.076;2022-11-15T00:13:20;100950.19;;;4.16;100.00
33635;BME280;19972;54.360;10.076;2022-11-15T00:15:46;100943.34;;;4.12;100.00
33635;BME280;19972;54.360;10.076;2022-11-15T00:18:13;100938.94;;;4.12;100.00
33635;BME280;19972;54.360;10.076;2022-11-15T00:20:40;100942.41;;;4.13;100.00
33635;BME280;19972;54.360;10.076;2022-11-15T00:23:07;100950.19;;;4.16;100.00
33635;BME280;19972;54.360;10.076;2022-11-15T00:25:33;100957.94;;;4.45;100.00
33635;BME280;19972;54.360;10.076;2022-11-15T00:28:00;100937.00;;;4.42;100.00
33635;BME280;19972;54.360;10.076;2022-11-15T00:30:27;100937.00;;;4.42;100.00
33635;BME280;19972;54.360;10.076;2022-11-15T00:32:54;100944.63;;;4.25;100.00
33635;BME280;19972;54.360;10.076;2022-11-15T00:35:21;100938.56;;;4.23;100.00
33635;BME280;19972;54.360;10.076;2022-11-15T00:37:47;100949.22;;;4.18;100.00
33635;BME280;19972;54.360;10.076;2022-11-15T00:40:14;100942.31;;;4.16;100.00
33635;BME280;19972;54.360;10.076;2022-11-15T00:42:41;100950.00;;;4.22;100.00
33635;BME280;19972;54.360;10.076;2022-11-15T00:45:08;100945.03;;;4.13;100.00
33635;BME280;19972;54.360;10.076;2022-11-15T00:47:35;100958.97;;;4.15;100.00
33635;BME280;19972;54.360;10.076;2022-11-15T00:50:02;100943.34;;;4.37;100.00
33635;BME280;19972;54.360;10.076;2022-11-15T00:52:28;100940.13;;;4.29;100.00
33635;BME280;19972;54.360;10.076;2022-11-15T00:54:55;100935.59;;;4.32;100.00
33635;BME280;19972;54.360;10.076;2022-11-15T00:57:21;100935.03;;;4.24;100.00
33635;BME280;19972;54.360;10.076;2022-11-15T00:59:47;100939.66;;;4.16;100.00
33635;BME280;19972;54.360;10.076;2022-11-15T01:02:14;100933.72;;;4.11;100.00
33635;BME280;19972;54.360;10.076;2022-11-15T01:04:40;100945.25;;;4.07;100.00
33635;BME280;19972;54.360;10.076;2022-11-15T01:07:07;100938.78;;;4.17;100.00
33635;BME280;19972;54.360;10.076;2022-11-15T01:09:33;100934.22;;;4.22;100.00
33635;BME280;19972;54.360;10.076;2022-11-15T01:12:00;100939.66;;;4.16;100.00
33635;BME280;19972;54.360;10.076;2022-11-15T01:14:26;100937.03;;;4.16;100.00
33635;BME280;19972;54.360;10.076;2022-11-15T01:16:53;100931.22;;;4.08;100.00
33635;BME280;19972;54.360;10.076;2022-11-15T01:19:19;100932.81;;;4.12;100.00
33635;BME280;19972;54.360;10.076;2022-11-15T01:21:49;100930.91;;;4.17;100.00
33635;BME280;19972;54.360;10.076;2022-11-15T01:24:16;100924.97;;;4.10;100.00
33635;BME280;19972;54.360;10.076;2022-11-15T01:26:42;100930.78;;;4.20;100.00
33635;BME280;19972;54.360;10.076;2022-11-15T01:29:09;100932.50;;;4.21;100.00
33635;BME280;19972;54.360;10.076;2022-11-15T01:31:35;100935.72;;;4.29;100.00
33635;BME280;19972;54.360;10.076;2022-11-15T01:34:01;100944.75;;;4.22;100.00
33635;BME280;19972;54.360;10.076;2022-11-15T01:36:28;100930.84;;;4.18;100.00
33635;BME280;19972;54.360;10.076;2022-11-15T01:38:58;100926.22;;;4.25;100.00
33635;BME280;19972;54.360;10.076;2022-11-15T01:41:30;100917.88;;;4.39;100.00
33635;BME280;19972;54.360;10.076;2022-11-15T01:44:34;100926.06;;;4.30;100.00
33635;BME280;19972;54.360;10.076;2022-11-15T01:47:17;100922.44;;;4.34;100.00
33635;BME280;19972;54.360;10.076;2022-11-15T01:50:10;100913.19;;;4.47;100.00
33635;BME280;19972;54.360;10.076;2022-11-15T01:52:37;100905.00;;;4.55;100.00
33635;BME280;19972;54.360;10.076;2022-11-15T01:55:09;100903.88;;;4.85;100.00
33635;BME280;19972;54.360;10.076;2022-11-15T01:57:39;100885.13;;;4.71;100.00
33635;BME280;19972;54.360;10.076;2022-11-15T02:00:07;100878.97;;;4.72;100.00
33635;BME280;19972;54.360;10.076;2022-11-15T02:02:35;100871.97;;;4.71;100.00
33635;BME280;19972;54.360;10.076;2022-11-15T02:05:02;100860.84;;;4.64;100.00
33635;BME280;19972;54.360;10.076;2022-11-15T02:07:30;100857.91;;;4.95;100.00
33635;BME280;19972;54.360;10.076;2022-11-15T02:10:06;100833.41;;;4.93;100.00
33635;BME280;19972;54.360;10.076;2022-11-15T02:12:33;100830.09;;;4.88;100.00
33635;BME280;19972;54.360;10.076;2022-11-15T02:15:02;100814.09;;;4.94;100.00
33635;BME280;19972;54.360;10.076;2022-11-15T02:20:51;100782.03;;;5.07;100.00
33635;BME280;19972;54.360;10.076;2022-11-15T02:32:19;100746.31;;;5.01;100.00
33635;BME280;19972;54.360;10.076;2022-11-15T02:35:23;100733.41;;;4.95;100.00
33635;BME280;19972;54.360;10.076;2022-11-15T02:37:58;100734.97;;;4.99;100.00
33635;BME280;19972;54.360;10.076;2022-11-15T02:43:10;100719.59;;;5.10;100.00
33635;BME280;19972;54.360;10.076;2022-11-15T02:46:03;100712.63;;;5.09;100.00
33635;BME280;19972;54.360;10.076;2022-11-15T02:48:32;100697.97;;;5.03;100.00
33635;BME280;19972;54.360;10.076;2022-11-15T02:51:00;100682.84;;;5.09;100.00
33635;BME280;19972;54.360;10.076;2022-11-15T02:53:27;100666.00;;;5.13;100.00
33635;BME280;19972;54.360;10.076;2022-11-15T02:55:55;100659.91;;;5.12;100.00
33635;BME280;19972;54.360;10.076;2022-11-15T03:01:42;100653.41;;;4.99;100.00
33635;BME280;19972;54.360;10.076;2022-11-15T03:04:33;100640.50;;;4.94;100.00
33635;BME280;19972;54.360;10.076;2022-11-15T03:07:11;100648.19;;;4.77;100.00
33635;BME280;19972;54.360;10.076;2022-11-15T03:09:53;100655.69;;;4.66;100.00
33635;BME280;19972;54.360;10.076;2022-11-15T03:12:43;100649.94;;;4.78;100.00
33635;BME280;19972;54.360;10.076;2022-11-15T03:15:18;100641.53;;;4.90;100.00
33635;BME280;19972;54.360;10.076;2022-11-15T03:17:53;100635.00;;;4.79;100.00
33635;BME280;19972;54.360;10.076;2022-11-15T03:20:22;100629.75;;;4.79;100.00
33635;BME280;19972;54.360;10.076;2022-11-15T03:22:52;100625.34;;;4.79;100.00
33635;BME280;19972;54.360;10.076;2022-11-15T03:25:22;100613.13;;;4.78;100.00
33635;BME280;19972;54.360;10.076;2022-11-15T03:27:52;100610.50;;;4.78;100.00
33635;BME280;19972;54.360;10.076;2022-11-15T03:30:20;100607.44;;;4.87;100.00
33635;BME280;19972;54.360;10.076;2022-11-15T03:32:51;100604.16;;;4.82;100.00
33635;BME280;19972;54.360;10.076;2022-11-15T03:35:28;100604.56;;;4.73;100.00
33635;BME280;19972;54.360;10.076;2022-11-15T03:38:13;100598.50;;;4.71;100.00
33635;BME280;19972;54.360;10.076;2022-11-15T03:40:56;100590.75;;;4.68;100.00
33635;BME280;19972;54.360;10.076;2022-11-15T03:43:36;100580.03;;;4.52;100.00
33635;BME280;19972;54.360;10.076;2022-11-15T03:46:19;100581.97;;;4.47;100.00
33635;BME280;19972;54.360;10.076;2022-11-15T03:48:56;100582.50;;;4.55;100.00
33635;BME280;19972;54.360;10.076;2022-11-15T03:51:25;100591.97;;;4.59;100.00
33635;BME280;19972;54.360;10.076;2022-11-15T03:53:52;100587.09;;;4.72;100.00
33635;BME280;19972;54.360;10.076;2022-11-15T03:56:18;100590.75;;;4.68;100.00
33635;BME280;19972;54.360;10.076;2022-11-15T03:58:44;100581.78;;;4.52;100.00
33635;BME280;19972;54.360;10.076;2022-11-15T04:01:11;100586.00;;;4.56;100.00
33635;BME280;19972;54.360;10.076;2022-11-15T04:03:37;100593.84;;;4.35;100.00
33635;BME280;19972;54.360;10.076;2022-11-15T04:06:04;100605.28;;;4.34;100.00
33635;BME280;19972;54.360;10.076;2022-11-15T04:08:30;100603.84;;;4.47;100.00
33635;BME280;19972;54.360;10.076;2022-11-15T04:10:57;100612.03;;;4.62;100.00
33635;BME280;19972;54.360;10.076;2022-11-15T04:13:24;100606.16;;;4.55;100.00
33635;BME280;19972;54.360;10.076;2022-11-15T04:15:51;100584.28;;;4.55;100.00
33635;BME280;19972;54.360;10.076;2022-11-15T04:18:17;100579.28;;;4.48;100.00
33635;BME280;19972;54.360;10.076;2022-11-15T04:20:44;100585.41;;;4.69;100.00
33635;BME280;19972;54.360;10.076;2022-11-15T04:23:29;100589.16;;;4.64;100.00
33635;BME280;19972;54.360;10.076;2022-11-15T04:26:16;100588.31;;;4.63;100.00
33635;BME280;19972;54.360;10.076;2022-11-15T04:28:43;100579.03;;;4.55;100.00
33635;BME280;19972;54.360;10.076;2022-11-15T04:31:29;100587.47;;;4.63;100.00
33635;BME280;19972;54.360;10.076;2022-11-15T04:33:55;100578.59;;;4.43;100.00
33635;BME280;19972;54.360;10.076;2022-11-15T04:36:22;100584.00;;;4.40;100.00
33635;BME280;19972;54.360;10.076;2022-11-15T04:39:07;100589.53;;;4.55;100.00
33635;BME280;19972;54.360;10.076;2022-11-15T04:41:34;100591.63;;;4.46;100.00
33635;BME280;19972;54.360;10.076;2022-11-15T04:44:00;100593.34;;;4.47;100.00
33635;BME280;19972;54.360;10.076;2022-11-15T04:46:27;100597.84;;;4.44;100.00
33635;BME280;19972;54.360;10.076;2022-11-15T04:48:54;100590.78;;;4.46;100.00
33635;BME280;19972;54.360;10.076;2022-11-15T04:51:25;100594.81;;;4.33;100.00
33635;BME280;19972;54.360;10.076;2022-11-15T04:53:51;100599.53;;;4.46;100.00
33635;BME280;19972;54.360;10.076;2022-11-15T04:56:18;100602.81;;;4.52;100.00
33635;BME280;19972;54.360;10.076;2022-11-15T04:58:44;100597.50;;;4.53;100.00
33635;BME280;19972;54.360;10.076;2022-11-15T05:01:13;100592.31;;;4.52;100.00
33635;BME280;19972;54.360;10.076;2022-11-15T05:03:43;100602.25;;;4.43;100.00
33635;BME280;19972;54.360;10.076;2022-11-15T05:06:29;100591.09;;;4.38;100.00
33635;BME280;19972;54.360;10.076;2022-11-15T05:08:56;100594.28;;;4.46;100.00
33635;BME280;19972;54.360;10.076;2022-11-15T05:11:23;100598.50;;;4.50;100.00
33635;BME280;19972;54.360;10.076;2022-11-15T05:13:50;100595.97;;;4.47;100.00
33635;BME280;19972;54.360;10.076;2022-11-15T05:16:16;100589.25;;;4.40;100.00
33635;BME280;19972;54.360;10.076;2022-11-15T05:18:43;100587.97;;;4.50;100.00
33635;BME280;19972;54.360;10.076;2022-11-15T05:21:13;100592.25;;;4.31;100.00
33635;BME280;19972;54.360;10.076;2022-11-15T05:23:40;100594.09;;;4.29;100.00
33635;BME280;19972;54.360;10.076;2022-11-15T05:26:08;100585.19;;;4.33;100.00
33635;BME280;19972;54.360;10.076;2022-11-15T05:28:35;100604.00;;;4.22;100.00
33635;BME280;19972;54.360;10.076;2022-11-15T05:31:06;100615.19;;;4.06;100.00
33635;BME280;19972;54.360;10.076;2022-11-15T05:33:35;100618.03;;;4.00;100.00
33635;BME280;19972;54.360;10.076;2022-11-15T05:38:34;100632.69;;;4.05;100.00
33635;BME280;19972;54.360;10.076;2022-11-15T05:41:01;100623.91;;;4.06;100.00
33635;BME280;19972;54.360;10.076;2022-11-15T05:43:30;100639.16;;;3.96;100.00
33635;BME280;19972;54.360;10.076;2022-11-15T05:45:59;100639.69;;;4.06;100.00
33635;BME280;19972;54.360;10.076;2022-11-15T05:48:26;100637.25;;;4.45;100.00
33635;BME280;19972;54.360;10.076;2022-11-15T05:50:52;100633.63;;;4.48;100.00
33635;BME280;19972;54.360;10.076;2022-11-15T05:53:20;100626.03;;;4.62;100.00
33635;BME280;19972;54.360;10.076;2022-11-15T05:55:47;100618.88;;;4.66;100.00
33635;BME280;19972;54.360;10.076;2022-11-15T05:58:14;100624.00;;;4.69;100.00
33635;BME280;19972;54.360;10.076;2022-11-15T06:00:41;100605.22;;;4.78;100.00
33635;BME280;19972;54.360;10.076;2022-11-15T06:03:09;100606.59;;;4.87;100.00
33635;BME280;19972;54.360;10.076;2022-11-15T06:05:36;100602.06;;;4.90;100.00
33635;BME280;19972;54.360;10.076;2022-11-15T06:08:02;100584.44;;;4.92;100.00
33635;BME280;19972;54.360;10.076;2022-11-15T06:10:29;100593.09;;;5.15;100.00
33635;BME280;19972;54.360;10.076;2022-11-15T06:13:03;100601.53;;;5.23;100.00
33635;BME280;19972;54.360;10.076;2022-11-15T06:15:32;100604.00;;;5.26;100.00
33635;BME280;19972;54.360;10.076;2022-11-15T06:17:58;100597.53;;;5.14;100.00
33635;BME280;19972;54.360;10.076;2022-11-15T06:20:26;100593.69;;;5.21;100.00
33635;BME280;19972;54.360;10.076;2022-11-15T06:23:01;100608.22;;;5.30;100.00
33635;BME280;19972;54.360;10.076;2022-11-15T06:25:28;100608.88;;;5.35;100.00
33635;BME280;19972;54.360;10.076;2022-11-15T06:27:56;100596.78;;;5.31;100.00
33635;BME280;19972;54.360;10.076;2022-11-15T06:30:25;100595.91;;;5.30;100.00
33635;BME280;19972;54.360;10.076;2022-11-15T06:32:58;100600.34;;;5.30;100.00
33635;BME280;19972;54.360;10.076;2022-11-15T06:35:25;100607.75;;;5.41;100.00
33635;BME280;19972;54.360;10.076;2022-11-15T06:37:51;100608.31;;;5.47;100.00
33635;BME280;19972;54.360;10.076;2022-11-15T06:40:18;100605.03;;;5.42;100.00
33635;BME280;19972;54.360;10.076;2022-11-15T06:42:44;100598.94;;;5.42;100.00
33635;BME280;19972;54.360;10.076;2022-11-15T06:45:10;100605.69;;;5.47;100.00
33635;BME280;19972;54.360;10.076;2022-11-15T06:47:44;100602.13;;;5.48;100.00
33635;BME280;19972;54.360;10.076;2022-11-15T06:50:11;100599.38;;;5.51;100.00
33635;BME280;19972;54.360;10.076;2022-11-15T06:52:38;100602.66;;;5.56;100.00
33635;BME280;19972;54.360;10.076;2022-11-15T06:55:05;100596.59;;;5.54;100.00
33635;BME280;19972;54.360;10.076;2022-11-15T06:57:31;100601.94;;;5.72;100.00
33635;BME280;19972;54.360;10.076;2022-11-15T06:59:58;100603.22;;;5.82;100.00
33635;BME280;19972;54.360;10.076;2022-11-15T07:02:25;100611.91;;;5.65;100.00
33635;BME280;19972;54.360;10.076;2022-11-15T07:04:51;100598.81;;;5.64;100.00
33635;BME280;19972;54.360;10.076;2022-11-15T07:07:17;100587.13;;;5.69;100.00
33635;BME280;19972;54.360;10.076;2022-11-15T07:09:44;100589.63;;;5.53;100.00
33635;BME280;19972;54.360;10.076;2022-11-15T07:12:10;100595.56;;;5.77;100.00
33635;BME280;19972;54.360;10.076;2022-11-15T07:14:37;100589.41;;;5.77;100.00
33635;BME280;19972;54.360;10.076;2022-11-15T07:17:04;100601.94;;;5.72;100.00
33635;BME280;19972;54.360;10.076;2022-11-15T07:19:31;100603.66;;;5.73;100.00
33635;BME280;19972;54.360;10.076;2022-11-15T07:21:58;100601.94;;;5.72;100.00
33635;BME280;19972;54.360;10.076;2022-11-15T07:24:24;100609.13;;;5.87;100.00
33635;BME280;19972;54.360;10.076;2022-11-15T07:26:51;100608.19;;;5.88;100.00
33635;BME280;19972;54.360;10.076;2022-11-15T07:29:17;100606.50;;;5.87;100.00
33635;BME280;19972;54.360;10.076;2022-11-15T07:31:44;100592.16;;;5.94;100.00
33635;BME280;19972;54.360;10.076;2022-11-15T07:34:10;100587.13;;;6.26;100.00
33635;BME280;19972;54.360;10.076;2022-11-15T07:36:37;100589.78;;;6.07;100.00
33635;BME280;19972;54.360;10.076;2022-11-15T07:39:03;100581.81;;;6.08;100.00
33635;BME280;19972;54.360;10.076;2022-11-15T07:41:30;100587.78;;;6.12;100.00
33635;BME280;19972;54.360;10.076;2022-11-15T07:43:56;100580.88;;;6.09;100.00
33635;BME280;19972;54.360;10.076;2022-11-15T07:46:23;100572.91;;;6.11;100.00
33635;BME280;19972;54.360;10.076;2022-11-15T07:48:50;100570.53;;;6.24;100.00
33635;BME280;19972;54.360;10.076;2022-11-15T07:51:16;100557.78;;;6.51;100.00
33635;BME280;19972;54.360;10.076;2022-11-15T07:53:43;100565.72;;;6.32;100.00
33635;BME280;19972;54.360;10.076;2022-11-15T07:56:11;100567.91;;;6.41;100.00
33635;BME280;19972;54.360;10.076;2022-11-15T07:58:38;100564.72;;;6.34;100.00
33635;BME280;19972;54.360;10.076;2022-11-15T08:01:05;100562.47;;;6.27;100.00
33635;BME280;19972;54.360;10.076;2022-11-15T08:03:32;100583.53;;;6.27;100.00
33635;BME280;19972;54.360;10.076;2022-11-15T08:06:00;100582.97;;;6.39;100.00
33635;BME280;19972;54.360;10.076;2022-11-15T08:08:26;100570.34;;;6.46;100.00
33635;BME280;19972;54.360;10.076;2022-11-15T08:10:53;100564.25;;;6.44;100.00
33635;BME280;19972;54.360;10.076;2022-11-15T08:13:20;100554.72;;;6.41;100.00
33635;BME280;19972;54.360;10.076;2022-11-15T08:15:47;100551.13;;;6.61;100.00
33635;BME280;19972;54.360;10.076;2022-11-15T08:18:20;100550.72;;;6.69;100.00
33635;BME280;19972;54.360;10.076;2022-11-15T08:20:46;100548.38;;;6.63;100.00
33635;BME280;19972;54.360;10.076;2022-11-15T08:23:13;100541.56;;;6.58;100.00
33635;BME280;19972;54.360;10.076;2022-11-15T08:25:39;100543.25;;;6.59;100.00
33635;BME280;19972;54.360;10.076;2022-11-15T08:28:07;100529.00;;;6.64;100.00
33635;BME280;19972;54.360;10.076;2022-11-15T08:30:36;100527.69;;;6.72;100.00
33635;BME280;19972;54.360;10.076;2022-11-15T08:33:03;100525.59;;;6.61;100.00
33635;BME280;19972;54.360;10.076;2022-11-15T08:35:30;100522.22;;;6.75;100.00
33635;BME280;19972;54.360;10.076;2022-11-15T08:37:56;100523.25;;;6.73;100.00
33635;BME280;19972;54.360;10.076;2022-11-15T08:40:23;100513.13;;;6.81;100.00
33635;BME280;19972;54.360;10.076;2022-11-15T08:42:50;100519.34;;;6.80;100.00
33635;BME280;19972;54.360;10.076;2022-11-15T08:45:16;100507.06;;;6.96;100.00
33635;BME280;19972;54.360;10.076;2022-11-15T08:47:43;100500.16;;;6.94;100.00
33635;BME280;19972;54.360;10.076;2022-11-15T08:50:15;100486.28;;;7.23;100.00
33635;BME280;19972;54.360;10.076;2022-11-15T08:52:41;100478.59;;;7.19;100.00
33635;BME280;19972;54.360;10.076;2022-11-15T08:55:08;100467.69;;;7.25;100.00
33635;BME280;19972;54.360;10.076;2022-11-15T08:57:34;100466.00;;;7.24;100.00
33635;BME280;19972;54.360;10.076;2022-11-15T09:00:01;100459.00;;;7.23;100.00
33635;BME280;19972;54.360;10.076;2022-11-15T09:02:28;100447.25;;;7.12;100.00
33635;BME280;19972;54.360;10.076;2022-11-15T09:04:54;100452.53;;;7.12;100.00
33635;BME280;19972;54.360;10.076;2022-11-15T09:07:21;100454.00;;;7.34;100.00
33635;BME280;19972;54.360;10.076;2022-11-15T09:09:47;100440.53;;;7.38;100.00
33635;BME280;19972;54.360;10.076;2022-11-15T09:12:14;100435.47;;;7.65;100.00
33635;BME280;19972;54.360;10.076;2022-11-15T09:14:40;100446.75;;;7.53;100.00
33635;BME280;19972;54.360;10.076;2022-11-15T09:17:08;100439.22;;;7.77;100.00
33635;BME280;19972;54.360;10.076;2022-11-15T09:19:35;100434.72;;;7.63;100.00
33635;BME280;19972;54.360;10.076;2022-11-15T09:22:01;100429.69;;;7.75;100.00
33635;BME280;19972;54.360;10.076;2022-11-15T09:24:28;100435.66;;;7.78;100.00
33635;BME280;19972;54.360;10.076;2022-11-15T09:26:54;100443.47;;;7.80;100.00
33635;BME280;19972;54.360;10.076;2022-11-15T09:29:20;100452.13;;;7.98;100.00
33635;BME280;19972;54.360;10.076;2022-11-15T09:31:47;100452.78;;;7.71;100.00
33635;BME280;19972;54.360;10.076;2022-11-15T09:34:13;100465.81;;;7.74;100.00
33635;BME280;19972;54.360;10.076;2022-11-15T09:36:40;100461.53;;;7.72;100.00
33635;BME280;19972;54.360;10.076;2022-11-15T09:39:06;100489.84;;;8.01;100.00
33635;BME280;19972;54.360;10.076;2022-11-15T09:49:32;100514.22;;;7.75;100.00
33635;BME280;19972;54.360;10.076;2022-11-15T09:51:59;100514.84;;;7.80;100.00
33635;BME280;19972;54.360;10.076;2022-11-15T09:54:35;100515.59;;;7.82;100.00
33635;BME280;19972;54.360;10.076;2022-11-15T09:57:24;100526.00;;;7.85;100.00
33635;BME280;19972;54.360;10.076;2022-11-15T10:00:17;100523.75;;;7.93;100.00
33635;BME280;19972;54.360;10.076;2022-11-15T10:03:13;100521.91;;;7.95;100.00
33635;BME280;19972;54.360;10.076;2022-11-15T10:05:48;100519.84;;;8.00;100.00
33635;BME280;19972;54.360;10.076;2022-11-15T10:08:42;100526.97;;;8.30;100.00
33635;BME280;19972;54.360;10.076;2022-11-15T10:11:22;100511.09;;;8.30;100.00
33635;BME280;19972;54.360;10.076;2022-11-15T10:14:12;100523.72;;;8.25;100.00
33635;BME280;19972;54.360;10.076;2022-11-15T10:25:16;100518.78;;;8.64;100.00
33635;BME280;19972;54.360;10.076;2022-11-15T10:27:45;100527.09;;;8.58;100.00
33635;BME280;19972;54.360;10.076;2022-11-15T10:30:16;100529.56;;;8.61;100.00
33635;BME280;19972;54.360;10.076;2022-11-15T10:32:45;100520.81;;;8.45;100.00
33635;BME280;19972;54.360;10.076;2022-11-15T10:35:21;100519.66;;;8.49;100.00
33635;BME280;19972;54.360;10.076;2022-11-15T10:37:48;100524.91;;;8.51;100.00
33635;BME280;19972;54.360;10.076;2022-11-15T10:40:22;100515.00;;;8.68;100.00
33635;BME280;19972;54.360;10.076;2022-11-15T10:43:18;100517.44;;;8.57;100.00
33635;BME280;19972;54.360;10.076;2022-11-15T10:45:46;100524.69;;;8.54;100.00
33635;BME280;19972;54.360;10.076;2022-11-15T10:50:46;100540.94;;;8.48;100.00
33635;BME280;19972;54.360;10.076;2022-11-15T10:53:32;100540.09;;;8.47;100.00
33635;BME280;19972;54.360;10.076;2022-11-15T10:56:05;100533.25;;;8.43;100.00
33635;BME280;19972;54.360;10.076;2022-11-15T10:58:37;100538.97;;;8.51;100.00
33635;BME280;19972;54.360;10.076;2022-11-15T11:01:22;100538.19;;;8.49;100.00
33635;BME280;19972;54.360;10.076;2022-11-15T11:04:04;100523.38;;;8.46;100.00
33635;BME280;19972;54.360;10.076;2022-11-15T11:06:47;100515.53;;;8.29;100.00
33635;BME280;19972;54.360;10.076;2022-11-15T11:09:35;100511.63;;;8.36;100.00
33635;BME280;19972;54.360;10.076;2022-11-15T11:12:06;100515.16;;;8.51;100.00
33635;BME280;19972;54.360;10.076;2022-11-15T11:14:38;100516.13;;;8.50;100.00
33635;BME280;19972;54.360;10.076;2022-11-15T11:26:07;100490.41;;;8.52;100.00
33635;BME280;19972;54.360;10.076;2022-11-15T11:28:51;100476.53;;;8.63;100.00
33635;BME280;19972;54.360;10.076;2022-11-15T11:36:48;100476.63;;;9.33;100.00
33635;BME280;19972;54.360;10.076;2022-11-15T11:39:40;100475.53;;;9.22;100.00
33635;BME280;19972;54.360;10.076;2022-11-15T11:44:45;100456.31;;;9.33;100.00
33635;BME280;19972;54.360;10.076;2022-11-15T11:47:23;100455.09;;;9.10;100.00
33635;BME280;19972;54.360;10.076;2022-11-15T11:49:59;100441.16;;;9.21;100.00
33635;BME280;19972;54.360;10.076;2022-11-15T11:52:32;100439.88;;;9.14;100.00
33635;BME280;19972;54.360;10.076;2022-11-15T11:55:12;100438.72;;;9.04;100.00
33635;BME280;19972;54.360;10.076;2022-11-15T11:57:54;100437.50;;;9.09;100.00
33635;BME280;19972;54.360;10.076;2022-11-15T12:00:27;100435.81;;;8.94;100.00
33635;BME280;19972;54.360;10.076;2022-11-15T12:05:42;100430.41;;;9.10;100.00
33635;BME280;19972;54.360;10.076;2022-11-15T12:11:10;100440.41;;;9.60;100.00
33635;BME280;19972;54.360;10.076;2022-11-15T12:13:40;100442.56;;;9.26;100.00
33635;BME280;19972;54.360;10.076;2022-11-15T12:18:36;100428.28;;;9.70;100.00
33635;BME280;19972;54.360;10.076;2022-11-15T12:21:13;100431.84;;;9.57;100.00
33635;BME280;19972;54.360;10.076;2022-11-15T12:23:52;100426.50;;;9.44;100.00
33635;BME280;19972;54.360;10.076;2022-11-15T12:26:24;100426.13;;;9.36;100.00
33635;BME280;19972;54.360;10.076;2022-11-15T12:28:55;100427.69;;;9.38;100.00
33635;BME280;19972;54.360;10.076;2022-11-15T12:31:45;100418.22;;;9.48;100.00
33635;BME280;19972;54.360;10.076;2022-11-15T12:36:49;100406.59;;;9.51;100.00
33635;BME280;19972;54.360;10.076;2022-11-15T12:39:16;100411.09;;;9.63;100.00
33635;BME280;19972;54.360;10.076;2022-11-15T12:41:44;100405.88;;;9.62;100.00
33635;BME280;19972;54.360;10.076;2022-11-15T13:02:22;100380.34;;;9.19;100.00
33635;BME280;19972;54.360;10.076;2022-11-15T13:04:50;100379.66;;;9.30;100.00
33635;BME280;19972;54.360;10.076;2022-11-15T13:12:56;100390.47;;;9.54;100.00
33635;BME280;19972;54.360;10.076;2022-11-15T13:15:36;100386.38;;;9.36;100.00
33635;BME280;19972;54.360;10.076;2022-11-15T13:20:53;100376.22;;;9.42;100.00
33635;BME280;19972;54.360;10.076;2022-11-15T13:23:27;100382.53;;;9.54;100.00
33635;BME280;19972;54.360;10.076;2022-11-15T13:28:31;100385.25;;;9.25;100.00
33635;BME280;19972;54.360;10.076;2022-11-15T13:31:03;100383.00;;;9.19;100.00
33635;BME280;19972;54.360;10.076;2022-11-15T13:33:40;100375.44;;;9.28;100.00
33635;BME280;19972;54.360;10.076;2022-11-15T13:36:12;100378.66;;;9.18;100.00
33635;BME280;19972;54.360;10.076;2022-11-15T13:38:40;100370.63;;;9.20;100.00
33635;BME280;19972;54.360;10.076;2022-11-15T13:41:22;100374.09;;;9.35;100.00
33635;BME280;19972;54.360;10.076;2022-11-15T13:43:50;100371.13;;;9.39;100.00
33635;BME280;19972;54.360;10.076;2022-11-15T13:46:20;100359.91;;;9.21;100.00
33635;BME280;19972;54.360;10.076;2022-11-15T13:49:00;100364.06;;;9.25;100.00
33635;BME280;19972;54.360;10.076;2022-11-15T13:51:29;100362.41;;;9.37;100.00
33635;BME280;19972;54.360;10.076;2022-11-15T13:54:02;100361.38;;;9.40;100.00
33635;BME280;19972;54.360;10.076;2022-11-15T13:56:32;100358.88;;;9.51;100.00
33635;BME280;19972;54.360;10.076;2022-11-15T13:59:10;100354.28;;;9.40;100.00
33635;BME280;19972;54.360;10.076;2022-11-15T14:01:41;100353.22;;;9.43;100.00
33635;BME280;19972;54.360;10.076;2022-11-15T14:04:13;100357.41;;;9.33;100.00
33635;BME280;19972;54.360;10.076;2022-11-15T14:06:47;100352.94;;;9.47;100.00
33635;BME280;19972;54.360;10.076;2022-11-15T14:09:38;100353.22;;;9.43;100.00
33635;BME280;19972;54.360;10.076;2022-11-15T14:14:53;100340.50;;;9.75;100.00
33635;BME280;19972;54.360;10.076;2022-11-15T14:19:56;100343.03;;;9.76;100.00
33635;BME280;19972;54.360;10.076;2022-11-15T14:22:25;100335.44;;;9.85;100.00
33635;BME280;19972;54.360;10.076;2022-11-15T14:25:14;100330.88;;;9.87;100.00
33635;BME280;19972;54.360;10.076;2022-11-15T14:27:43;100325.44;;;9.75;100.00
33635;BME280;19972;54.360;10.076;2022-11-15T14:30:15;100320.38;;;9.72;100.00
33635;BME280;19972;54.360;10.076;2022-11-15T14:32:47;100324.00;;;9.97;100.00
33635;BME280;19972;54.360;10.076;2022-11-15T14:35:17;100331.53;;;10.03;100.00
33635;BME280;19972;54.360;10.076;2022-11-15T14:37:44;100333.34;;;9.90;100.00
33635;BME280;19972;54.360;10.076;2022-11-15T14:40:21;100326.22;;;9.77;100.00